createdAt,value
2018-04-19T00:02:08.618Z,59.50
2018-04-19T00:04:36.779Z,59.50
2018-04-19T00:07:04.963Z,59.70
2018-04-19T00:09:33.100Z,60.80
2018-04-19T00:12:01.282Z,61.00
2018-04-19T00:14:29.486Z,60.40
2018-04-19T00:16:57.622Z,59.90
2018-04-19T00:19:25.777Z,59.60
2018-04-19T00:21:54.710Z,60.60
2018-04-19T00:24:22.865Z,60.50
2018-04-19T00:26:51.034Z,60.60
2018-04-19T00:29:19.172Z,60.30
2018-04-19T00:31:47.340Z,59.80
2018-04-19T00:34:15.501Z,59.00
2018-04-19T00:36:43.625Z,58.40
2018-04-19T00:39:11.785Z,58.40
2018-04-19T00:41:39.978Z,58.90
2018-04-19T00:44:08.178Z,58.90
2018-04-19T00:46:36.325Z,58.80
2018-04-19T00:49:04.497Z,58.60
2018-04-19T00:51:32.641Z,57.80
2018-04-19T00:54:01.557Z,57.50
2018-04-19T00:56:29.676Z,57.50
2018-04-19T00:58:57.821Z,57.90
2018-04-19T01:01:25.954Z,59.00
2018-04-19T01:03:54.083Z,59.50
2018-04-19T01:06:22.343Z,59.70
2018-04-19T01:08:50.571Z,59.70
2018-04-19T01:11:19.497Z,59.70
2018-04-19T01:13:47.682Z,59.70
2018-04-19T01:16:15.845Z,59.40
2018-04-19T01:18:43.985Z,59.60
2018-04-19T01:21:12.886Z,60.90
2018-04-19T01:23:41.064Z,61.00
2018-04-19T01:26:09.189Z,61.70
2018-04-19T01:28:37.400Z,62.10
2018-04-19T01:31:05.540Z,62.60
2018-04-19T01:33:33.669Z,62.80
2018-04-19T01:36:19.672Z,62.80
2018-04-19T01:38:47.950Z,62.70
2018-04-19T01:41:16.106Z,63.10
2018-04-19T01:43:44.317Z,63.20
2018-04-19T01:46:12.533Z,63.50
2018-04-19T01:48:40.662Z,64.00
2018-04-19T01:51:08.850Z,64.10
2018-04-19T01:53:37.806Z,65.40
2018-04-19T01:56:05.933Z,65.40
2018-04-19T01:58:34.893Z,65.60
2018-04-19T02:01:03.030Z,65.70
2018-04-19T02:03:31.194Z,66.10
2018-04-19T02:05:59.383Z,67.10
2018-04-19T02:08:27.551Z,67.50
2018-04-19T02:10:55.773Z,67.70
2018-04-19T02:13:25.297Z,67.80
2018-04-19T02:15:53.425Z,67.70
2018-04-19T02:18:22.372Z,67.60
2018-04-19T02:20:50.575Z,68.10
2018-04-19T02:23:18.730Z,68.90
2018-04-19T02:25:46.948Z,68.90
2018-04-19T02:28:15.768Z,69.00
2018-04-19T02:30:43.892Z,69.20
2018-04-19T02:33:12.057Z,70.10
2018-04-19T02:35:40.202Z,72.70
2018-04-19T02:38:08.502Z,72.50
2018-04-19T02:40:36.679Z,72.20
2018-04-19T02:43:04.950Z,72.40
2018-04-19T02:45:33.125Z,72.90
2018-04-19T02:48:01.289Z,72.70
2018-04-19T02:50:29.507Z,72.80
2018-04-19T02:52:57.680Z,72.50
2018-04-19T02:55:26.673Z,72.70
2018-04-19T02:57:55.609Z,72.90
2018-04-19T03:00:23.803Z,72.90
2018-04-19T03:02:51.998Z,73.00
2018-04-19T03:05:20.126Z,72.20
2018-04-19T03:07:48.314Z,73.10
2018-04-19T03:10:16.586Z,72.80
2018-04-19T03:12:44.749Z,72.80
2018-04-19T03:15:12.898Z,72.40
2018-04-19T03:17:41.070Z,72.60
2018-04-19T03:20:09.249Z,73.00
2018-04-19T03:22:37.414Z,73.20
2018-04-19T03:25:05.597Z,73.20
2018-04-19T03:27:33.734Z,73.40
2018-04-19T03:30:02.723Z,73.80
2018-04-19T03:32:30.876Z,73.10
2018-04-19T03:34:59.069Z,73.80
2018-04-19T03:37:27.226Z,73.30
2018-04-19T03:39:55.353Z,73.40
2018-04-19T03:42:23.537Z,73.20
2018-04-19T03:44:51.665Z,73.30
2018-04-19T03:47:19.906Z,73.50
2018-04-19T03:49:49.016Z,73.30
2018-04-19T03:52:17.175Z,73.60
2018-04-19T03:54:45.346Z,74.30
2018-04-19T03:57:13.622Z,74.40
2018-04-19T03:59:41.799Z,74.10
2018-04-19T04:02:09.949Z,74.70
2018-04-19T04:04:38.068Z,75.00
2018-04-19T04:07:06.810Z,75.20
2018-04-19T04:09:34.994Z,75.20
2018-04-19T04:12:03.133Z,75.40
2018-04-19T04:14:31.283Z,75.40
2018-04-19T04:17:18.217Z,76.40
2018-04-19T04:20:04.245Z,75.50
2018-04-19T04:22:50.721Z,75.60
2018-04-19T04:25:19.682Z,77.00
2018-04-19T04:27:48.588Z,77.10
2018-04-19T04:30:16.724Z,77.00
2018-04-19T04:32:44.937Z,76.60
2018-04-19T04:35:13.127Z,76.70
2018-04-19T04:37:41.280Z,76.50
2018-04-19T04:40:09.434Z,76.90
2018-04-19T04:42:38.371Z,75.10
2018-04-19T04:45:06.519Z,75.10
2018-04-19T04:47:34.653Z,74.50
2018-04-19T04:50:02.887Z,74.00
2018-04-19T04:52:31.016Z,73.50
2018-04-19T04:54:59.908Z,72.50
2018-04-19T04:57:28.954Z,72.40
2018-04-19T04:59:57.095Z,72.40
2018-04-19T05:02:25.233Z,71.90
2018-04-19T05:04:54.174Z,70.50
2018-04-19T05:07:22.332Z,70.60
2018-04-19T05:09:50.485Z,69.60
2018-04-19T05:12:18.646Z,68.30
2018-04-19T05:14:47.553Z,68.60
2018-04-19T05:17:16.510Z,67.20
2018-04-19T05:19:44.803Z,67.20
2018-04-19T05:22:12.937Z,66.10
2018-04-19T05:24:41.151Z,65.60
2018-04-19T05:27:10.071Z,64.90
2018-04-19T05:29:38.193Z,65.00
2018-04-19T05:32:06.374Z,63.80
2018-04-19T05:34:34.962Z,63.60
2018-04-19T05:37:03.856Z,62.70
2018-04-19T05:39:32.872Z,61.90
2018-04-19T05:42:01.027Z,62.00
2018-04-19T05:44:29.913Z,61.20
2018-04-19T05:46:58.932Z,59.80
2018-04-19T05:49:27.379Z,59.80
2018-04-19T05:51:56.282Z,58.40
2018-04-19T05:54:25.383Z,57.80
2018-04-19T05:56:53.479Z,57.80
2018-04-19T05:59:21.599Z,57.80
2018-04-19T06:01:49.795Z,58.00
2018-04-19T06:04:18.739Z,58.00
2018-04-19T06:06:46.877Z,58.10
2018-04-19T06:09:16.008Z,57.40
2018-04-19T06:11:44.249Z,57.00
2018-04-19T06:14:12.368Z,55.70
2018-04-19T06:16:40.509Z,55.10
2018-04-19T06:19:08.697Z,54.20
2018-04-19T06:21:36.875Z,54.20
2018-04-19T06:24:05.054Z,54.60
2018-04-19T06:26:33.223Z,53.80
2018-04-19T06:29:01.349Z,52.90
2018-04-19T06:31:29.606Z,52.40
2018-04-19T06:33:58.561Z,51.60
2018-04-19T06:36:26.718Z,51.50
2018-04-19T06:38:54.885Z,50.40
2018-04-19T06:41:23.059Z,49.90
2018-04-19T06:43:51.346Z,48.70
2018-04-19T06:46:19.508Z,48.10
2018-04-19T06:48:47.669Z,48.60
2018-04-19T06:51:15.880Z,48.30
2018-04-19T06:53:44.117Z,48.10
2018-04-19T06:56:12.237Z,47.10
2018-04-19T06:58:40.364Z,47.30
2018-04-19T07:01:08.723Z,45.50
2018-04-19T07:03:36.844Z,45.40
2018-04-19T07:06:04.984Z,45.60
2018-04-19T07:08:33.142Z,45.90
2018-04-19T07:11:01.350Z,44.00
2018-04-19T07:13:29.627Z,43.70
2018-04-19T07:15:57.795Z,44.70
2018-04-19T07:18:25.954Z,42.50
2018-04-19T07:20:54.150Z,42.10
2018-04-19T07:23:22.304Z,43.20
2018-04-19T07:25:50.465Z,42.90
2018-04-19T07:28:18.769Z,43.20
2018-04-19T07:30:46.926Z,43.50
2018-04-19T07:33:15.082Z,42.10
2018-04-19T07:35:43.254Z,40.20
2018-04-19T07:38:11.414Z,41.00
2018-04-19T07:40:39.602Z,40.20
2018-04-19T07:43:07.825Z,38.60
2018-04-19T07:45:35.954Z,37.20
2018-04-19T07:48:04.164Z,38.80
2018-04-19T07:50:32.429Z,39.30
2018-04-19T07:53:00.583Z,39.20
2018-04-19T07:55:28.775Z,38.40
2018-04-19T07:57:56.929Z,38.30
2018-04-19T08:00:25.078Z,38.60
2018-04-19T08:02:53.282Z,37.40
2018-04-19T08:05:21.500Z,36.90
2018-04-19T08:07:49.608Z,37.00
2018-04-19T08:10:17.763Z,37.10
2018-04-19T08:12:45.909Z,36.50
2018-04-19T08:15:14.164Z,36.20
2018-04-19T08:17:42.308Z,36.90
2018-04-19T08:20:10.511Z,36.10
2018-04-19T08:22:38.689Z,34.90
2018-04-19T08:25:06.833Z,33.70
2018-04-19T08:27:34.949Z,33.90
2018-04-19T08:30:03.139Z,34.60
2018-04-19T08:32:32.028Z,33.70
2018-04-19T08:35:00.913Z,33.70
2018-04-19T08:37:29.881Z,34.40
2018-04-19T08:39:58.136Z,34.40
2018-04-19T08:42:26.294Z,35.50
2018-04-19T08:44:54.440Z,33.60
2018-04-19T08:47:22.654Z,32.50
2018-04-19T08:49:50.806Z,32.00
2018-04-19T08:52:18.975Z,34.60
2018-04-19T08:54:47.170Z,33.00
2018-04-19T08:57:15.442Z,32.50
2018-04-19T08:59:43.598Z,33.40
2018-04-19T09:02:11.741Z,30.80
2018-04-19T09:04:40.665Z,31.60
2018-04-19T09:07:08.953Z,31.60
2018-04-19T09:09:37.440Z,31.70
2018-04-19T09:12:05.671Z,30.00
2018-04-19T09:14:33.881Z,29.10
2018-04-19T09:17:02.046Z,30.80
2018-04-19T09:19:30.241Z,30.90
2018-04-19T09:21:58.418Z,30.00
2018-04-19T09:24:26.553Z,29.50
2018-04-19T09:26:54.704Z,29.90
2018-04-19T09:29:22.841Z,31.40
2018-04-19T09:31:50.995Z,31.40
2018-04-19T09:34:19.258Z,30.40
2018-04-19T09:36:47.422Z,29.80
2018-04-19T09:39:15.588Z,29.30
2018-04-19T09:41:43.709Z,29.50
2018-04-19T09:44:11.829Z,27.90
2018-04-19T09:46:40.008Z,28.00
2018-04-19T09:49:09.253Z,26.90
2018-04-19T09:51:37.475Z,26.90
2018-04-19T09:54:05.717Z,25.70
2018-04-19T09:56:33.766Z,26.00
2018-04-19T09:59:12.438Z,25.30
2018-04-19T10:01:46.109Z,22.20
2018-04-19T10:04:15.055Z,23.20
2018-04-19T10:06:43.182Z,23.10
2018-04-19T10:09:12.114Z,22.10
2018-04-19T10:11:40.285Z,22.20
2018-04-19T10:14:08.430Z,22.30
2018-04-19T10:16:36.549Z,22.20
2018-04-19T10:19:04.734Z,22.90
2018-04-19T10:21:33.244Z,25.00
2018-04-19T10:24:02.216Z,22.60
2018-04-19T10:26:31.128Z,21.10
2018-04-19T10:28:59.327Z,22.00
2018-04-19T10:31:27.450Z,20.90
2018-04-19T10:33:56.360Z,20.00
2018-04-19T10:36:25.302Z,18.90
2018-04-19T10:38:53.428Z,18.80
2018-04-19T10:41:22.320Z,19.10
2018-04-19T10:43:50.503Z,19.10
2018-04-19T10:46:18.702Z,19.20
2018-04-19T10:48:46.841Z,18.30
2018-04-19T10:51:14.994Z,17.50
2018-04-19T10:53:43.926Z,17.30
2018-04-19T10:56:12.088Z,17.30
2018-04-19T10:58:40.261Z,16.80
2018-04-19T11:01:08.470Z,16.80
2018-04-19T11:03:36.634Z,16.30
2018-04-19T11:06:04.801Z,16.90
2018-04-19T11:08:33.156Z,16.10
2018-04-19T11:11:01.623Z,16.70
2018-04-19T11:13:29.797Z,15.70
2018-04-19T11:15:57.981Z,16.10
2018-04-19T11:18:26.125Z,15.00
2018-04-19T11:20:55.018Z,13.20
2018-04-19T11:23:23.948Z,13.90
2018-04-19T11:25:52.106Z,13.90
2018-04-19T11:28:20.236Z,13.80
2018-04-19T11:30:48.404Z,14.00
2018-04-19T11:33:16.587Z,12.70
2018-04-19T11:35:45.620Z,12.50
2018-04-19T11:38:14.011Z,12.00
2018-04-19T11:40:42.351Z,12.30
2018-04-19T11:43:10.536Z,10.40
2018-04-19T11:45:38.720Z,9.10
2018-04-19T11:48:06.903Z,9.30
2018-04-19T11:50:35.021Z,8.90
2018-04-19T11:53:03.174Z,8.10
2018-04-19T11:55:31.328Z,7.80
2018-04-19T11:57:59.442Z,8.10
2018-04-19T12:00:27.604Z,7.80
2018-04-19T12:02:55.778Z,6.40
2018-04-19T12:05:23.905Z,4.70
2018-04-19T12:07:52.032Z,4.90
2018-04-19T12:10:20.232Z,4.80
2018-04-19T12:12:48.382Z,3.70
2018-04-19T12:15:17.291Z,3.50
2018-04-19T12:17:45.462Z,3.50
2018-04-19T12:20:13.637Z,3.50
2018-04-19T12:22:41.804Z,2.40
2018-04-19T12:25:10.722Z,2.00
2018-04-19T12:27:38.889Z,2.00
2018-04-19T12:30:07.004Z,1.80
2018-04-19T12:32:35.149Z,1.00
2018-04-19T12:35:03.277Z,1.00
2018-04-19T12:37:32.180Z,1.00
2018-04-19T12:40:00.336Z,1.00
2018-04-19T12:42:29.247Z,1.00
2018-04-19T12:44:57.377Z,1.00
2018-04-19T12:47:25.565Z,1.00
2018-04-19T12:49:54.490Z,1.00
2018-04-19T12:52:22.618Z,1.00
2018-04-19T12:54:50.784Z,1.00
2018-04-19T12:57:18.896Z,1.00
2018-04-19T12:59:47.025Z,1.00
2018-04-19T13:02:15.140Z,1.00
2018-04-19T13:04:44.054Z,1.00
2018-04-19T13:07:12.246Z,1.00
2018-04-19T13:09:40.454Z,1.00
2018-04-19T13:12:09.414Z,1.00
2018-04-19T13:14:37.571Z,1.00
2018-04-19T13:17:05.700Z,1.00
2018-04-19T13:19:34.645Z,1.00
2018-04-19T13:22:02.767Z,1.00
2018-04-19T13:24:31.682Z,1.00
2018-04-19T13:26:59.837Z,1.00
2018-04-19T13:29:27.990Z,1.00
2018-04-19T13:31:56.922Z,1.00
2018-04-19T13:34:25.260Z,1.00
2018-04-19T13:36:54.161Z,1.00
2018-04-19T13:39:22.323Z,1.00
2018-04-19T13:41:50.486Z,1.00
2018-04-19T13:44:19.394Z,1.00
2018-04-19T13:46:47.578Z,1.00
2018-04-19T13:49:15.752Z,1.00
2018-04-19T13:51:45.601Z,1.00
2018-04-19T13:54:13.732Z,1.00
2018-04-19T13:56:41.905Z,1.00
2018-04-19T13:59:10.088Z,1.00
2018-04-19T14:01:38.235Z,1.00
2018-04-19T14:04:07.180Z,1.00
2018-04-19T14:06:35.292Z,1.00
2018-04-19T14:09:04.193Z,1.00
2018-04-19T14:11:32.374Z,1.00
2018-04-19T14:14:01.373Z,1.00
2018-04-19T14:16:29.569Z,1.00
2018-04-19T14:18:57.685Z,1.00
2018-04-19T14:21:25.832Z,1.00
2018-04-19T14:23:53.991Z,1.00
2018-04-19T14:26:22.185Z,1.00
2018-04-19T14:28:50.314Z,1.00
2018-04-19T14:31:18.455Z,1.00
2018-04-19T14:33:47.413Z,1.00
2018-04-19T14:36:15.666Z,1.00
2018-04-19T14:38:43.796Z,1.00
2018-04-19T14:41:12.860Z,1.00
2018-04-19T14:43:41.168Z,1.00
2018-04-19T14:46:09.292Z,1.00
2018-04-19T14:48:37.466Z,1.00
2018-04-19T14:51:05.630Z,1.00
2018-04-19T14:53:33.773Z,1.00
2018-04-19T14:56:01.913Z,1.00
2018-04-19T14:58:30.077Z,1.00
2018-04-19T15:00:58.323Z,1.00
2018-04-19T15:03:26.544Z,1.00
2018-04-19T15:05:54.669Z,1.00
2018-04-19T15:08:22.848Z,1.00
2018-04-19T15:10:51.027Z,1.00
2018-04-19T15:13:19.194Z,1.00
2018-04-19T15:15:47.369Z,1.00
2018-04-19T15:18:15.488Z,1.00
2018-04-19T15:20:44.405Z,1.00
2018-04-19T15:23:12.577Z,1.00
2018-04-19T15:25:40.776Z,1.00
2018-04-19T15:28:08.904Z,1.00
2018-04-19T15:30:37.804Z,1.00
2018-04-19T15:33:05.935Z,1.00
2018-04-19T15:35:34.090Z,1.00
2018-04-19T15:38:02.245Z,1.00
2018-04-19T15:40:30.403Z,1.00
2018-04-19T15:42:58.903Z,1.00
2018-04-19T15:45:27.050Z,1.00
2018-04-19T15:47:55.197Z,1.00
2018-04-19T15:50:28.967Z,1.00
2018-04-19T15:52:57.124Z,1.00
2018-04-19T15:55:25.372Z,1.00
2018-04-19T15:57:53.528Z,1.00
2018-04-19T16:00:22.486Z,1.00
2018-04-19T16:02:50.704Z,1.00
2018-04-19T16:05:18.827Z,1.00
2018-04-19T16:07:46.964Z,1.00
2018-04-19T16:10:15.102Z,1.00
2018-04-19T16:12:44.112Z,1.00
2018-04-19T16:15:12.244Z,1.00
2018-04-19T16:17:40.398Z,1.00
2018-04-19T16:20:08.544Z,1.00
2018-04-19T16:22:36.694Z,1.00
2018-04-19T16:25:04.893Z,1.00
2018-04-19T16:27:33.079Z,1.00
2018-04-19T16:30:01.204Z,1.00
2018-04-19T16:32:30.109Z,1.00
2018-04-19T16:34:58.246Z,1.00
2018-04-19T16:37:26.451Z,1.00
2018-04-19T16:39:54.608Z,1.00
2018-04-19T16:42:23.513Z,1.00
2018-04-19T16:44:51.716Z,1.00
2018-04-19T16:47:19.933Z,1.00
2018-04-19T16:49:48.072Z,1.00
2018-04-19T16:52:16.222Z,1.90
2018-04-19T16:54:44.390Z,3.00
2018-04-19T16:57:12.553Z,3.90
2018-04-19T16:59:40.769Z,4.20
2018-04-19T17:02:08.917Z,5.10
2018-04-19T17:04:37.088Z,6.20
2018-04-19T17:07:05.278Z,7.50
2018-04-19T17:09:33.470Z,8.10
2018-04-19T17:12:01.640Z,9.40
2018-04-19T17:14:29.807Z,10.20
2018-04-19T17:16:57.969Z,11.10
2018-04-19T17:19:26.117Z,10.80
2018-04-19T17:21:54.339Z,11.90
2018-04-19T17:24:22.417Z,12.50
2018-04-19T17:26:50.550Z,13.10
2018-04-19T17:29:18.733Z,13.60
2018-04-19T17:31:46.879Z,14.20
2018-04-19T17:34:15.054Z,14.60
2018-04-19T17:36:43.212Z,15.50
2018-04-19T17:39:11.383Z,15.80
2018-04-19T17:41:40.296Z,16.60
2018-04-19T17:44:08.417Z,16.60
2018-04-19T17:46:36.679Z,16.90
2018-04-19T17:49:04.911Z,17.30
2018-04-19T17:51:33.092Z,17.50
2018-04-19T17:54:01.208Z,18.20
2018-04-19T17:56:29.320Z,18.20
2018-04-19T17:58:57.511Z,18.10
2018-04-19T18:01:25.679Z,18.70
2018-04-19T18:03:53.833Z,19.30
2018-04-19T18:06:22.744Z,20.30
2018-04-19T18:08:50.864Z,20.30
2018-04-19T18:11:19.014Z,21.20
2018-04-19T18:13:47.247Z,21.90
2018-04-19T18:16:15.403Z,22.70
2018-04-19T18:18:44.293Z,25.00
2018-04-19T18:21:13.220Z,25.50
2018-04-19T18:23:41.380Z,25.50
2018-04-19T18:26:09.568Z,27.30
2018-04-19T18:28:37.726Z,27.10
2018-04-19T18:31:05.922Z,28.10
2018-04-19T18:33:34.257Z,29.10
2018-04-19T18:36:03.173Z,30.40
2018-04-19T18:38:31.300Z,30.30
2018-04-19T18:40:59.566Z,31.00
2018-04-19T18:43:27.730Z,31.60
2018-04-19T18:45:55.878Z,32.60
2018-04-19T18:48:24.457Z,33.00
2018-04-19T18:50:52.598Z,33.50
2018-04-19T18:53:21.633Z,34.80
2018-04-19T18:55:49.799Z,34.80
2018-04-19T18:58:18.713Z,35.00
2018-04-19T19:00:47.179Z,35.70
2018-04-19T19:03:16.841Z,36.50
2018-04-19T19:05:45.780Z,36.60
2018-04-19T19:08:13.970Z,36.70
2018-04-19T19:10:42.157Z,36.50
2018-04-19T19:13:10.319Z,36.50
2018-04-19T19:16:09.120Z,36.90
2018-04-19T19:18:55.109Z,37.10
2018-04-19T19:21:24.034Z,38.10
2018-04-19T19:23:52.185Z,38.00
2018-04-19T19:26:21.135Z,38.50
2018-04-19T19:28:49.313Z,38.60
2018-04-19T19:31:17.564Z,38.80
2018-04-19T19:33:45.866Z,38.90
2018-04-19T19:36:14.014Z,39.30
2018-04-19T19:38:42.206Z,40.20
2018-04-19T19:41:10.385Z,42.10
2018-04-19T19:43:38.630Z,41.20
2018-04-19T19:46:06.794Z,41.30
2018-04-19T19:48:34.947Z,41.40
2018-04-19T19:51:03.839Z,41.60
2018-04-19T19:53:32.836Z,41.70
2018-04-19T19:56:01.718Z,41.90
2018-04-19T19:58:30.747Z,43.20
2018-04-19T20:00:58.901Z,42.00
2018-04-19T20:03:27.241Z,42.40
2018-04-19T20:05:55.438Z,42.50
2018-04-19T20:08:24.462Z,44.70
2018-04-19T20:10:52.654Z,43.30
2018-04-19T20:13:20.814Z,43.40
2018-04-19T20:15:48.982Z,43.80
2018-04-19T20:18:17.131Z,44.10
2018-04-19T20:20:45.252Z,44.30
2018-04-19T20:23:13.418Z,44.70
2018-04-19T20:25:41.642Z,45.20
2018-04-19T20:28:09.792Z,45.40
2018-04-19T20:30:38.153Z,45.30
2018-04-19T20:33:06.304Z,45.40
2018-04-19T20:35:34.492Z,45.70
2018-04-19T20:38:03.454Z,45.70
2018-04-19T20:40:31.984Z,45.30
2018-04-19T20:43:00.138Z,46.10
2018-04-19T20:45:28.257Z,46.20
2018-04-19T20:47:56.378Z,46.70
2018-04-19T20:50:24.646Z,47.00
2018-04-19T20:52:52.797Z,47.00
2018-04-19T20:55:20.921Z,46.80
2018-04-19T20:57:49.073Z,46.80
2018-04-19T21:00:17.229Z,45.80
2018-04-19T21:02:45.412Z,46.90
2018-04-19T21:05:13.669Z,47.50
2018-04-19T21:07:41.913Z,48.00
2018-04-19T21:10:10.350Z,48.20
2018-04-19T21:12:38.494Z,48.40
2018-04-19T21:15:17.435Z,48.60
2018-04-19T21:17:45.566Z,49.00
2018-04-19T21:20:13.711Z,49.80
2018-04-19T21:22:52.482Z,50.40
2018-04-19T21:25:31.449Z,50.00
2018-04-19T21:28:01.356Z,51.00
2018-04-19T21:30:29.492Z,51.50
2018-04-19T21:32:58.652Z,51.50
2018-04-19T21:35:27.595Z,52.10
2018-04-19T21:37:55.766Z,52.00
2018-04-19T21:40:23.904Z,52.20
2018-04-19T21:42:52.097Z,52.40
2018-04-19T21:45:20.249Z,52.80
2018-04-19T21:47:48.479Z,53.10
2018-04-19T21:50:16.669Z,53.60
2018-04-19T21:52:45.591Z,54.10
2018-04-19T21:55:13.721Z,54.20
2018-04-19T21:57:41.890Z,54.50
2018-04-19T22:00:10.045Z,54.90
2018-04-19T22:02:38.197Z,55.20
2018-04-19T22:05:06.345Z,55.50
2018-04-19T22:07:34.553Z,55.90
2018-04-19T22:10:02.796Z,56.20
2018-04-19T22:12:31.042Z,56.90
2018-04-19T22:14:59.966Z,56.70
2018-04-19T22:17:28.146Z,57.70
2018-04-19T22:19:57.220Z,58.40
2018-04-19T22:22:26.162Z,58.70
2018-04-19T22:24:54.310Z,58.80
2018-04-19T22:27:22.449Z,58.70
2018-04-19T22:29:51.385Z,59.60
2018-04-19T22:32:19.569Z,59.60
2018-04-19T22:34:47.693Z,60.00
2018-04-19T22:37:16.610Z,61.10
2018-04-19T22:39:44.762Z,61.10
2018-04-19T22:42:12.928Z,61.60
2018-04-19T22:44:41.832Z,62.60
2018-04-19T22:47:09.948Z,62.70
2018-04-19T22:49:38.078Z,63.30
2018-04-19T22:52:06.194Z,63.50
2018-04-19T22:54:34.345Z,63.70
2018-04-19T22:57:02.507Z,64.10
2018-04-19T22:59:30.677Z,64.70
2018-04-19T23:01:58.854Z,64.90
2018-04-19T23:04:27.000Z,65.10
2018-04-19T23:06:55.145Z,65.10
2018-04-19T23:09:23.302Z,65.50
2018-04-19T23:11:51.490Z,65.90
2018-04-19T23:14:19.738Z,66.10
2018-04-19T23:16:47.906Z,66.30
2018-04-19T23:19:16.082Z,66.50
2018-04-19T23:21:44.256Z,67.10
2018-04-19T23:24:12.414Z,67.50
2018-04-19T23:26:40.618Z,68.20
2018-04-19T23:29:08.774Z,68.70
2018-04-19T23:31:36.965Z,69.00
2018-04-19T23:34:05.114Z,69.20
2018-04-19T23:36:33.286Z,69.50
2018-04-19T23:39:01.474Z,69.90
2018-04-19T23:41:29.666Z,70.40
2018-04-19T23:43:57.909Z,70.30
2018-04-19T23:46:26.084Z,71.60
2018-04-19T23:48:54.258Z,70.30
2018-04-19T23:51:22.426Z,70.30
2018-04-19T23:53:50.631Z,70.30
2018-04-19T23:56:18.978Z,70.20
2018-04-19T23:58:47.153Z,70.30
